Startpagina
METAR-TAF:

METAR-TAF

Vliegvelden :

Brize Norton, Engeland

breedte: 51-45N, lengte: 001-35W, hoogte: 88 m

Actueel weer

Dit bericht is 31 minuten geleden gemaakt, om 19:50 UTC
Wind 10 kt uit het noordoosten
Temperatuur 15°C
Vochtigheid 63%
Druk 1021 hPa
Zicht 10 km of meer
geen wolken onder 1500 m en geen cumulonimbus

METAR: EGVN 181950Z 04010KT CAVOK 15/08 Q1021 NOSIG RMK BLU BLU

Tijdstip: 21:21 (20:21 UTC)

Verwachting

Dit bericht is 3 uur en het 49 minuten geleden gemaakt, om 16:32 UTC
Verwachting geldig van 18 om 18 UTC tot 19 om 18 UTC
Wind 12 kt uit het oostnoordoosten
Zicht 10 km of meer
geen wolken onder 1500 m en geen cumulonimbus
Kans 30% :
Tijdelijke
van 18 om 18 UTC tot 19 om 10 UTC
Wind 15 kt uit het oostnoordoosten met uitschieters tot 25 kt

TAF: EGVN 181632Z 1818/1918 06012KT CAVOK PROB30 TEMPO 1818/1910 07015G25KT

Waarnemingen en weersverwachtingen van meer dan 4000 vliegvelden (METAR en TAF).

De beschikbare stations zijn de gele en rode punten op de kaart.

Ga met uw muis naar het station om de naam te zien.

Klik dan om waarnemingen en weersverwachtingen te zien.

kaart wijzigen: klik op de groene knoppen met een zwart kruis om in te zoomen, op de groene knop met een streepje om uit te zoomen of op de groene pijlen voor aangrenzende kaarten.


METAR-TAF: